createdAt,value
2018-08-23T00:00:57.986Z,52.00
2018-08-23T00:01:58.029Z,52.48
2018-08-23T00:02:58.066Z,52.48
2018-08-23T00:03:58.152Z,51.04
2018-08-23T00:04:58.142Z,51.32
2018-08-23T00:05:58.182Z,51.04
2018-08-23T00:06:58.221Z,50.94
2018-08-23T00:07:58.275Z,50.65
2018-08-23T00:08:58.301Z,49.88
2018-08-23T00:09:58.340Z,49.69
2018-08-23T00:10:58.480Z,50.46
2018-08-23T00:11:58.423Z,50.84
2018-08-23T00:12:58.461Z,50.17
2018-08-23T00:13:58.514Z,49.31
2018-08-23T00:14:58.537Z,49.31
2018-08-23T00:15:58.581Z,49.02
2018-08-23T00:16:58.618Z,49.21
2018-08-23T00:17:58.664Z,49.31
2018-08-23T00:18:58.721Z,49.79
2018-08-23T00:19:58.736Z,49.50
2018-08-23T00:20:58.786Z,49.79
2018-08-23T00:21:58.816Z,48.93
2018-08-23T00:22:58.854Z,48.54
2018-08-23T00:23:58.893Z,48.74
2018-08-23T00:24:58.935Z,48.52
2018-08-23T00:25:58.981Z,48.04
2018-08-23T00:26:59.019Z,48.25
2018-08-23T00:27:59.053Z,48.43
2018-08-23T00:28:59.093Z,47.66
2018-08-23T00:29:59.131Z,47.17
2018-08-23T00:30:59.171Z,47.08
2018-08-23T00:31:59.212Z,47.27
2018-08-23T00:32:59.251Z,47.56
2018-08-23T00:33:59.296Z,47.08
2018-08-23T00:34:59.337Z,47.17
2018-08-23T00:35:59.370Z,47.08
2018-08-23T00:36:59.408Z,46.70
2018-08-23T00:37:59.446Z,46.98
2018-08-23T00:38:59.489Z,46.22
2018-08-23T00:39:59.527Z,46.22
2018-08-23T00:40:59.568Z,46.12
2018-08-23T00:41:59.606Z,45.16
2018-08-23T00:42:59.647Z,44.40
2018-08-23T00:43:59.687Z,44.87
2018-08-23T00:44:59.725Z,45.26
2018-08-23T00:45:59.764Z,45.26
2018-08-23T00:46:59.802Z,45.16
2018-08-23T00:47:59.843Z,44.97
2018-08-23T00:48:59.881Z,44.68
2018-08-23T00:49:59.920Z,44.87
2018-08-23T00:50:59.961Z,43.80
2018-08-23T00:52:00.001Z,43.82
2018-08-23T00:53:00.039Z,44.59
2018-08-23T00:54:00.079Z,43.91
2018-08-23T00:55:00.118Z,44.37
2018-08-23T00:56:00.156Z,44.56
2018-08-23T00:57:00.196Z,43.51
2018-08-23T00:58:00.234Z,43.13
2018-08-23T00:59:00.276Z,42.94
2018-08-23T01:00:00.314Z,42.36
2018-08-23T01:01:00.354Z,41.21
2018-08-23T01:02:00.396Z,40.64
2018-08-23T01:03:00.431Z,40.25
2018-08-23T01:04:00.473Z,39.77
2018-08-23T01:05:00.514Z,39.58
2018-08-23T01:06:00.550Z,39.10
2018-08-23T01:07:00.590Z,38.91
2018-08-23T01:08:00.629Z,38.43
2018-08-23T01:09:00.668Z,38.34
2018-08-23T01:10:00.715Z,38.53
2018-08-23T01:11:00.746Z,38.62
2018-08-23T01:12:00.787Z,38.72
2018-08-23T01:13:00.834Z,39.29
2018-08-23T01:14:00.864Z,39.77
2018-08-23T01:15:00.905Z,39.77
2018-08-23T01:16:00.953Z,39.10
2018-08-23T01:17:00.991Z,39.01
2018-08-23T01:18:01.019Z,38.34
2018-08-23T01:19:01.066Z,39.10
2018-08-23T01:20:01.100Z,39.01
2018-08-23T01:21:01.138Z,38.62
2018-08-23T01:22:01.177Z,38.34
2018-08-23T01:23:01.217Z,38.14
2018-08-23T01:24:01.257Z,38.14
2018-08-23T01:25:01.307Z,38.24
2018-08-23T01:26:01.335Z,37.76
2018-08-23T01:27:01.377Z,37.66
2018-08-23T01:28:01.413Z,37.85
2018-08-23T01:29:01.453Z,37.57
2018-08-23T01:30:01.492Z,37.18
2018-08-23T01:31:01.530Z,37.28
2018-08-23T01:32:01.570Z,36.61
2018-08-23T01:33:01.610Z,36.30
2018-08-23T01:34:01.652Z,36.21
2018-08-23T01:35:01.688Z,36.30
2018-08-23T01:36:01.728Z,35.92
2018-08-23T01:37:01.773Z,35.35
2018-08-23T01:38:01.806Z,36.02
2018-08-23T01:39:01.846Z,35.44
2018-08-23T01:40:01.884Z,35.35
2018-08-23T01:41:01.924Z,35.35
2018-08-23T01:42:01.962Z,35.16
2018-08-23T01:43:02.002Z,35.36
2018-08-23T01:44:02.047Z,34.96
2018-08-23T01:45:02.079Z,34.77
2018-08-23T01:46:02.117Z,34.77
2018-08-23T01:47:02.157Z,34.87
2018-08-23T01:48:02.196Z,34.58
2018-08-23T01:49:02.238Z,33.81
2018-08-23T01:50:02.275Z,33.33
2018-08-23T01:51:02.314Z,33.14
2018-08-23T01:52:02.352Z,32.38
2018-08-23T01:53:02.390Z,32.38
2018-08-23T01:54:02.430Z,32.09
2018-08-23T01:55:02.468Z,32.28
2018-08-23T01:56:02.508Z,32.47
2018-08-23T01:57:02.548Z,31.04
2018-08-23T01:58:02.586Z,31.42
2018-08-23T01:59:02.629Z,30.65
2018-08-23T02:00:02.664Z,30.18
2018-08-23T02:01:02.704Z,29.98
2018-08-23T02:02:02.743Z,30.36
2018-08-23T02:03:02.784Z,29.69
2018-08-23T02:04:02.822Z,29.31
2018-08-23T02:05:02.860Z,29.31
2018-08-23T02:06:02.898Z,29.22
2018-08-23T02:07:02.938Z,29.69
2018-08-23T02:08:02.977Z,29.58
2018-08-23T02:09:03.017Z,29.20
2018-08-23T02:10:03.055Z,29.50
2018-08-23T02:11:03.094Z,29.01
2018-08-23T02:12:03.137Z,28.15
2018-08-23T02:13:03.172Z,27.95
2018-08-23T02:14:03.211Z,27.67
2018-08-23T02:15:03.250Z,27.76
2018-08-23T02:16:03.289Z,27.86
2018-08-23T02:17:03.329Z,28.05
2018-08-23T02:18:03.375Z,27.48
2018-08-23T02:19:03.405Z,27.28
2018-08-23T02:20:03.445Z,26.90
2018-08-23T02:21:03.493Z,27.28
2018-08-23T02:22:03.522Z,27.38
2018-08-23T02:23:03.562Z,27.38
2018-08-23T02:24:03.606Z,27.19
2018-08-23T02:25:03.641Z,27.19
2018-08-23T02:26:03.679Z,26.52
2018-08-23T02:27:03.718Z,26.14
2018-08-23T02:28:03.756Z,26.14
2018-08-23T02:29:03.798Z,25.75
2018-08-23T02:30:03.836Z,25.66
2018-08-23T02:31:03.873Z,24.99
2018-08-23T02:32:03.915Z,24.99
2018-08-23T02:33:03.954Z,25.95
2018-08-23T02:34:03.992Z,25.18
2018-08-23T02:35:04.032Z,25.46
2018-08-23T02:36:04.071Z,24.70
2018-08-23T02:37:04.118Z,25.85
2018-08-23T02:38:04.198Z,25.66
2018-08-23T02:39:04.201Z,25.46
2018-08-23T02:40:04.228Z,25.85
2018-08-23T02:41:04.268Z,25.46
2018-08-23T02:42:04.305Z,25.18
2018-08-23T02:43:04.345Z,25.37
2018-08-23T02:44:04.383Z,24.70
2018-08-23T02:45:04.423Z,24.99
2018-08-23T02:46:04.458Z,24.32
2018-08-23T02:47:04.499Z,24.32
2018-08-23T02:48:04.537Z,23.46
2018-08-23T02:49:04.576Z,23.07
2018-08-23T02:50:04.621Z,23.36
2018-08-23T02:51:04.656Z,23.65
2018-08-23T02:52:04.695Z,23.36
2018-08-23T02:53:04.731Z,22.78
2018-08-23T02:54:04.778Z,22.50
2018-08-23T02:55:04.810Z,22.69
2018-08-23T02:56:04.848Z,22.11
2018-08-23T02:57:04.888Z,21.54
2018-08-23T02:58:04.925Z,22.21
2018-08-23T02:59:04.964Z,21.73
2018-08-23T03:00:05.004Z,21.83
2018-08-23T03:01:05.042Z,22.11
2018-08-23T03:02:05.082Z,21.15
2018-08-23T03:03:05.120Z,20.97
2018-08-23T03:04:05.162Z,21.15
2018-08-23T03:05:05.199Z,21.34
2018-08-23T03:06:05.237Z,21.24
2018-08-23T03:07:05.278Z,22.40
2018-08-23T03:08:05.316Z,22.11
2018-08-23T03:09:05.354Z,22.01
2018-08-23T03:10:05.393Z,22.11
2018-08-23T03:11:05.433Z,22.31
2018-08-23T03:12:05.472Z,22.50
2018-08-23T03:13:05.516Z,22.01
2018-08-23T03:14:05.572Z,21.44
2018-08-23T03:15:05.590Z,21.44
2018-08-23T03:16:05.634Z,20.86
2018-08-23T03:17:05.664Z,20.57
2018-08-23T03:18:05.703Z,20.09
2018-08-23T03:19:05.743Z,19.62
2018-08-23T03:20:05.782Z,19.90
2018-08-23T03:21:05.821Z,19.81
2018-08-23T03:22:05.865Z,20.00
2018-08-23T03:23:05.896Z,19.81
2018-08-23T03:24:05.935Z,20.09
2018-08-23T03:25:05.974Z,20.00
2018-08-23T03:26:06.014Z,20.00
2018-08-23T03:27:06.052Z,19.82
2018-08-23T03:28:06.092Z,20.48
2018-08-23T03:29:06.129Z,20.49
2018-08-23T03:30:06.168Z,21.05
2018-08-23T03:31:06.207Z,21.91
2018-08-23T03:32:06.247Z,22.20
2018-08-23T03:33:06.335Z,22.97
2018-08-23T03:34:06.322Z,22.97
2018-08-23T03:35:06.362Z,22.68
2018-08-23T03:36:06.401Z,22.87
2018-08-23T03:37:06.439Z,23.83
2018-08-23T03:38:06.479Z,23.73
2018-08-23T03:39:06.518Z,23.83
2018-08-23T03:40:06.557Z,24.40
2018-08-23T03:41:06.596Z,24.79
2018-08-23T03:42:06.633Z,24.02
2018-08-23T03:43:06.674Z,23.63
2018-08-23T03:44:06.712Z,23.92
2018-08-23T03:45:06.751Z,24.02
2018-08-23T03:46:06.790Z,24.11
2018-08-23T03:47:06.828Z,24.40
2018-08-23T03:48:06.874Z,24.11
2018-08-23T03:49:06.905Z,24.11
2018-08-23T03:50:06.946Z,23.35
2018-08-23T03:51:06.982Z,23.16
2018-08-23T03:52:07.025Z,22.68
2018-08-23T03:53:07.060Z,22.20
2018-08-23T03:54:07.099Z,22.39
2018-08-23T03:55:07.139Z,22.01
2018-08-23T03:56:07.179Z,21.44
2018-08-23T03:57:07.214Z,21.44
2018-08-23T03:58:07.252Z,21.24
2018-08-23T03:59:07.291Z,20.38
2018-08-23T04:00:07.329Z,20.00
2018-08-23T04:01:07.389Z,19.71
2018-08-23T04:02:07.408Z,19.71
2018-08-23T04:03:07.445Z,19.62
2018-08-23T04:04:07.486Z,18.85
2018-08-23T04:05:07.524Z,18.08
2018-08-23T04:06:07.663Z,17.80
2018-08-23T04:07:07.600Z,17.80
2018-08-23T04:08:07.639Z,17.90
2018-08-23T04:09:07.679Z,17.61
2018-08-23T04:10:07.728Z,17.41
2018-08-23T04:11:07.754Z,16.94
2018-08-23T04:12:07.801Z,17.41
2018-08-23T04:13:07.836Z,16.65
2018-08-23T04:14:07.879Z,16.36
2018-08-23T04:15:07.908Z,16.36
2018-08-23T04:16:07.949Z,16.55
2018-08-23T04:17:07.988Z,16.65
2018-08-23T04:18:08.026Z,16.65
2018-08-23T04:19:08.067Z,15.69
2018-08-23T04:20:08.104Z,16.46
2018-08-23T04:21:08.141Z,16.08
2018-08-23T04:22:08.188Z,16.94
2018-08-23T04:23:08.219Z,16.35
2018-08-23T04:24:08.259Z,16.46
2018-08-23T04:25:08.295Z,15.59
2018-08-23T04:26:08.333Z,15.59
2018-08-23T04:27:08.373Z,15.11
2018-08-23T04:28:08.411Z,14.63
2018-08-23T04:29:08.452Z,14.92
2018-08-23T04:30:08.487Z,15.59
2018-08-23T04:31:08.527Z,15.40
2018-08-23T04:32:08.571Z,15.59
2018-08-23T04:33:08.605Z,15.97
2018-08-23T04:34:08.650Z,16.46
2018-08-23T04:35:08.712Z,15.88
2018-08-23T04:36:08.722Z,16.64
2018-08-23T04:37:08.759Z,16.94
2018-08-23T04:38:08.797Z,17.03
2018-08-23T04:39:08.835Z,17.41
2018-08-23T04:40:08.875Z,16.55
2018-08-23T04:41:08.920Z,16.36
2018-08-23T04:42:08.951Z,16.45
2018-08-23T04:43:09.006Z,16.16
2018-08-23T04:44:09.031Z,15.97
2018-08-23T04:45:09.069Z,16.55
2018-08-23T04:46:09.108Z,16.55
2018-08-23T04:47:09.159Z,16.17
2018-08-23T04:48:09.184Z,16.84
2018-08-23T04:49:09.225Z,17.03
2018-08-23T04:50:09.268Z,17.70
2018-08-23T04:51:09.399Z,17.90
2018-08-23T04:52:09.339Z,17.51
2018-08-23T04:53:09.377Z,17.51
2018-08-23T04:54:09.416Z,17.22
2018-08-23T04:55:09.453Z,16.74
2018-08-23T04:56:09.509Z,17.03
2018-08-23T04:57:09.533Z,17.90
2018-08-23T04:58:09.568Z,17.61
2018-08-23T04:59:09.609Z,17.70
2018-08-23T05:00:09.648Z,18.08
2018-08-23T05:01:09.685Z,18.18
2018-08-23T05:02:09.725Z,18.95
2018-08-23T05:03:09.763Z,18.76
2018-08-23T05:04:09.895Z,18.47
2018-08-23T05:05:09.840Z,17.99
2018-08-23T05:06:09.879Z,18.47
2018-08-23T05:07:09.927Z,18.27
2018-08-23T05:08:09.956Z,18.76
2018-08-23T05:09:09.994Z,19.04
2018-08-23T05:10:10.034Z,18.95
2018-08-23T05:11:10.073Z,18.76
2018-08-23T05:12:10.114Z,19.13
2018-08-23T05:13:10.150Z,18.95
2018-08-23T05:14:10.279Z,18.95
2018-08-23T05:15:10.225Z,19.52
2018-08-23T05:16:10.267Z,19.90
2018-08-23T05:17:10.405Z,20.09
2018-08-23T05:18:10.341Z,20.48
2018-08-23T05:19:10.382Z,21.45
2018-08-23T05:20:10.420Z,22.58
2018-08-23T05:21:10.463Z,22.58
2018-08-23T05:22:10.496Z,23.55
2018-08-23T05:23:10.650Z,24.41
2018-08-23T05:24:10.573Z,25.18
2018-08-23T05:25:10.613Z,24.89
2018-08-23T05:26:10.650Z,25.95
2018-08-23T05:27:10.692Z,26.33
2018-08-23T05:28:10.728Z,26.71
2018-08-23T05:29:10.770Z,27.19
2018-08-23T05:30:10.808Z,27.48
2018-08-23T05:31:10.845Z,27.58
2018-08-23T05:32:10.885Z,28.15
2018-08-23T05:33:10.922Z,28.63
2018-08-23T05:34:10.961Z,29.39
2018-08-23T05:35:11.008Z,29.20
2018-08-23T05:36:11.039Z,29.39
2018-08-23T05:37:11.077Z,29.97
2018-08-23T05:38:11.119Z,30.93
2018-08-23T05:39:11.162Z,30.73
2018-08-23T05:40:11.194Z,31.21
2018-08-23T05:41:11.233Z,30.83
2018-08-23T05:42:11.271Z,31.99
2018-08-23T05:43:11.310Z,32.84
2018-08-23T05:44:11.348Z,33.32
2018-08-23T05:45:11.390Z,34.39
2018-08-23T05:46:11.426Z,34.96
2018-08-23T05:47:11.464Z,35.35
2018-08-23T05:48:11.503Z,35.92
2018-08-23T05:49:11.546Z,36.79
2018-08-23T05:50:11.589Z,37.07
2018-08-23T05:51:11.620Z,37.55
2018-08-23T05:52:11.660Z,37.36
2018-08-23T05:53:11.698Z,38.22
2018-08-23T05:54:11.745Z,38.41
2018-08-23T05:55:11.778Z,39.08
2018-08-23T05:56:11.816Z,39.48
2018-08-23T05:57:11.856Z,39.48
2018-08-23T05:58:11.896Z,40.64
2018-08-23T05:59:11.931Z,41.11
2018-08-23T06:00:11.971Z,41.97
2018-08-23T06:01:12.010Z,43.32
2018-08-23T06:02:12.050Z,43.90
2018-08-23T06:03:12.089Z,43.99
2018-08-23T06:04:12.128Z,45.72
2018-08-23T06:05:12.166Z,46.31
2018-08-23T06:06:12.205Z,46.98
2018-08-23T06:07:12.254Z,47.17
2018-08-23T06:08:12.327Z,47.85
2018-08-23T06:09:12.325Z,47.46
2018-08-23T06:10:12.362Z,48.23
2018-08-23T06:11:12.402Z,48.80
2018-08-23T06:12:12.443Z,49.19
2018-08-23T06:13:12.481Z,50.65
2018-08-23T06:14:12.550Z,50.56
2018-08-23T06:15:12.558Z,51.14
2018-08-23T06:16:12.607Z,52.19
2018-08-23T06:17:12.637Z,52.09
2018-08-23T06:18:12.676Z,53.72
2018-08-23T06:19:12.718Z,55.16
2018-08-23T06:20:12.770Z,56.05
2018-08-23T06:21:12.805Z,57.37
2018-08-23T06:22:12.834Z,57.59
2018-08-23T06:23:12.875Z,58.17
2018-08-23T06:24:12.913Z,58.36
2018-08-23T06:25:12.955Z,59.41
2018-08-23T06:26:12.992Z,60.75
2018-08-23T06:27:13.051Z,60.95
2018-08-23T06:28:13.071Z,60.88
2018-08-23T06:29:13.111Z,61.65
2018-08-23T06:30:13.153Z,62.23
2018-08-23T06:31:13.189Z,62.61
2018-08-23T06:32:13.232Z,63.28
2018-08-23T06:33:13.461Z,63.09
2018-08-23T06:34:13.308Z,61.27
2018-08-23T06:35:13.349Z,62.52
2018-08-23T06:36:13.388Z,63.09
2018-08-23T06:37:13.428Z,65.14
2018-08-23T06:38:13.485Z,64.66
2018-08-23T06:39:13.507Z,62.84
2018-08-23T06:40:13.549Z,62.16
2018-08-23T06:41:13.590Z,63.32
2018-08-23T06:42:13.627Z,63.12
2018-08-23T06:43:13.672Z,62.55
2018-08-23T06:44:13.706Z,64.18
2018-08-23T06:45:13.747Z,66.58
2018-08-23T06:46:13.884Z,68.51
2018-08-23T06:47:13.827Z,68.41
2018-08-23T06:48:13.866Z,67.93
2018-08-23T06:49:13.926Z,69.50
2018-08-23T06:50:13.946Z,66.52
2018-08-23T06:51:14.084Z,67.86
2018-08-23T06:52:14.060Z,69.69
2018-08-23T06:53:14.064Z,71.33
2018-08-23T06:54:14.106Z,70.75
2018-08-23T06:55:14.152Z,69.98
2018-08-23T06:56:14.186Z,71.14
2018-08-23T06:57:14.225Z,70.75
2018-08-23T06:58:14.264Z,70.98
2018-08-23T06:59:14.307Z,71.36
2018-08-23T07:00:14.355Z,71.55
2018-08-23T07:01:14.386Z,73.57
2018-08-23T07:02:14.439Z,72.23
2018-08-23T07:03:14.465Z,72.90
2018-08-23T07:04:14.506Z,72.23
2018-08-23T07:05:14.547Z,73.19
2018-08-23T07:06:14.584Z,75.21
2018-08-23T07:07:14.626Z,75.34
2018-08-23T07:08:14.666Z,75.63
2018-08-23T07:09:14.707Z,77.17
2018-08-23T07:10:14.747Z,76.78
2018-08-23T07:11:14.788Z,76.40
2018-08-23T07:12:14.827Z,78.52
2018-08-23T07:13:14.876Z,78.33
2018-08-23T07:14:14.906Z,79.77
2018-08-23T07:15:14.948Z,79.81
2018-08-23T07:16:14.988Z,80.19
2018-08-23T07:17:15.131Z,78.75
2018-08-23T07:18:15.069Z,80.38
2018-08-23T07:19:15.118Z,81.06
2018-08-23T07:20:15.153Z,81.25
2018-08-23T07:21:15.207Z,81.06
2018-08-23T07:22:15.230Z,81.25
2018-08-23T07:23:15.271Z,80.96
2018-08-23T07:24:15.354Z,81.93
2018-08-23T07:25:15.352Z,81.16
2018-08-23T07:26:15.402Z,81.77
2018-08-23T07:27:15.432Z,82.31
2018-08-23T07:28:15.474Z,81.96
2018-08-23T07:29:15.522Z,81.39
2018-08-23T07:30:15.689Z,82.26
2018-08-23T07:31:15.595Z,82.93
2018-08-23T07:32:15.638Z,82.64
2018-08-23T07:33:15.768Z,83.12
2018-08-23T07:34:15.719Z,83.12
2018-08-23T07:35:15.759Z,82.83
2018-08-23T07:36:15.800Z,82.06
2018-08-23T07:37:15.841Z,83.45
2018-08-23T07:38:15.880Z,82.97
2018-08-23T07:39:16.040Z,83.26
2018-08-23T07:40:15.967Z,83.26
2018-08-23T07:41:16.003Z,82.59
2018-08-23T07:42:16.044Z,80.76
2018-08-23T07:43:16.087Z,82.78
2018-08-23T07:44:16.126Z,83.26
2018-08-23T07:45:16.168Z,83.20
2018-08-23T07:46:16.208Z,82.53
2018-08-23T07:47:16.257Z,84.36
2018-08-23T07:48:16.290Z,82.72
2018-08-23T07:49:16.382Z,84.55
2018-08-23T07:50:16.372Z,84.07
2018-08-23T07:51:16.478Z,82.72
2018-08-23T07:52:16.455Z,83.05
2018-08-23T07:53:16.595Z,83.11
2018-08-23T07:54:16.537Z,83.83
2018-08-23T07:55:16.577Z,83.83
2018-08-23T07:56:16.621Z,84.50
2018-08-23T07:57:16.657Z,85.17
2018-08-23T07:58:16.702Z,85.17
2018-08-23T07:59:16.749Z,85.08
2018-08-23T08:00:16.785Z,84.83
2018-08-23T08:01:16.823Z,85.31
2018-08-23T08:02:16.862Z,85.75
2018-08-23T08:03:16.909Z,85.70
2018-08-23T08:04:16.946Z,85.31
2018-08-23T08:05:16.990Z,85.12
2018-08-23T08:06:17.029Z,85.60
2018-08-23T08:07:17.070Z,85.41
2018-08-23T08:08:17.120Z,86.47
2018-08-23T08:09:17.154Z,86.61
2018-08-23T08:10:17.195Z,87.67
2018-08-23T08:11:17.244Z,87.58
2018-08-23T08:12:17.346Z,87.19
2018-08-23T08:13:17.421Z,86.03
2018-08-23T08:14:17.359Z,87.77
2018-08-23T08:15:17.567Z,88.45
2018-08-23T08:16:17.445Z,88.39
2018-08-23T08:17:17.485Z,88.64
2018-08-23T08:18:17.527Z,88.87
2018-08-23T08:19:17.569Z,88.68
2018-08-23T08:20:17.612Z,89.17
2018-08-23T08:21:17.652Z,88.49
2018-08-23T08:22:17.693Z,88.49
2018-08-23T08:23:17.741Z,89.07
2018-08-23T08:24:17.779Z,88.97
2018-08-23T08:25:17.818Z,89.07
2018-08-23T08:26:17.869Z,89.84
2018-08-23T08:27:17.946Z,90.66
2018-08-23T08:28:17.943Z,90.56
2018-08-23T08:29:17.986Z,90.47
2018-08-23T08:30:18.026Z,90.47
2018-08-23T08:31:18.075Z,90.37
2018-08-23T08:32:18.111Z,90.66
2018-08-23T08:33:18.221Z,91.53
2018-08-23T08:34:18.194Z,91.33
2018-08-23T08:35:18.235Z,91.86
2018-08-23T08:36:18.278Z,91.48
2018-08-23T08:37:18.322Z,91.67
2018-08-23T08:38:18.372Z,91.28
2018-08-23T08:39:18.404Z,91.48
2018-08-23T08:40:18.447Z,91.48
2018-08-23T08:41:18.488Z,91.09
2018-08-23T08:42:18.530Z,91.58
2018-08-23T08:43:18.571Z,91.67
2018-08-23T08:44:18.617Z,91.42
2018-08-23T08:45:18.659Z,91.72
2018-08-23T08:46:18.699Z,92.40
2018-08-23T08:47:18.740Z,93.07
2018-08-23T08:48:18.784Z,92.78
2018-08-23T08:49:18.826Z,93.46
2018-08-23T08:50:18.928Z,93.85
2018-08-23T08:51:18.910Z,93.07
2018-08-23T08:52:18.951Z,93.12
2018-08-23T08:53:18.992Z,93.60
2018-08-23T08:54:19.033Z,93.31
2018-08-23T08:55:19.076Z,93.41
2018-08-23T08:56:19.120Z,93.51
2018-08-23T08:57:19.223Z,93.89
2018-08-23T08:58:19.211Z,93.99
2018-08-23T08:59:19.248Z,93.99
2018-08-23T09:00:19.292Z,94.76
2018-08-23T09:01:19.332Z,93.70
2018-08-23T09:02:19.371Z,93.60
2018-08-23T09:03:19.415Z,94.13
2018-08-23T09:04:19.457Z,94.23
2018-08-23T09:05:19.501Z,94.52
2018-08-23T09:06:19.540Z,94.81
2018-08-23T09:07:19.593Z,94.04
2018-08-23T09:08:19.628Z,94.90
2018-08-23T09:09:19.673Z,94.62
2018-08-23T09:10:19.713Z,94.32
2018-08-23T09:11:19.754Z,93.94
2018-08-23T09:12:19.797Z,94.42
2018-08-23T09:13:19.838Z,94.27
2018-08-23T09:14:19.882Z,94.18
2018-08-23T09:15:19.924Z,94.37
2018-08-23T09:16:19.968Z,94.37
2018-08-23T09:17:20.017Z,94.18
2018-08-23T09:18:20.056Z,94.08
2018-08-23T09:19:20.096Z,94.66
2018-08-23T09:20:20.140Z,94.76
2018-08-23T09:21:20.180Z,94.47
2018-08-23T09:22:20.220Z,94.37
2018-08-23T09:23:20.264Z,94.47
2018-08-23T09:24:20.317Z,94.66
2018-08-23T09:25:20.377Z,94.57
2018-08-23T09:26:20.392Z,94.32
2018-08-23T09:27:20.541Z,94.42
2018-08-23T09:28:20.482Z,94.32
2018-08-23T09:29:20.524Z,94.32
2018-08-23T09:30:20.563Z,94.61
2018-08-23T09:31:20.611Z,94.42
2018-08-23T09:32:20.650Z,94.61
2018-08-23T09:33:20.693Z,94.23
2018-08-23T09:34:20.736Z,94.37
2018-08-23T09:35:20.793Z,94.17
2018-08-23T09:36:20.826Z,94.07
2018-08-23T09:37:20.864Z,94.76
2018-08-23T09:38:20.907Z,93.30
2018-08-23T09:39:20.949Z,93.49
2018-08-23T09:40:21.000Z,94.27
2018-08-23T09:41:21.036Z,93.79
2018-08-23T09:42:21.078Z,94.17
2018-08-23T09:43:21.131Z,93.11
2018-08-23T09:44:21.166Z,92.82
2018-08-23T09:45:21.211Z,93.15
2018-08-23T09:46:21.250Z,92.82
2018-08-23T09:47:21.295Z,93.83
2018-08-23T09:48:21.347Z,93.83
2018-08-23T09:49:21.381Z,93.15
2018-08-23T09:50:21.424Z,93.54
2018-08-23T09:51:21.466Z,92.57
2018-08-23T09:52:21.531Z,91.79
2018-08-23T09:53:21.556Z,91.55
2018-08-23T09:54:21.593Z,91.35
2018-08-23T09:55:21.637Z,91.35
2018-08-23T09:56:21.681Z,91.35
2018-08-23T09:57:21.725Z,91.01
2018-08-23T09:58:21.765Z,90.91
2018-08-23T09:59:21.822Z,90.33
2018-08-23T10:00:21.854Z,91.11
2018-08-23T10:01:21.905Z,90.04
2018-08-23T10:02:21.941Z,90.72
2018-08-23T10:03:21.984Z,90.04
2018-08-23T10:04:22.146Z,90.04
2018-08-23T10:05:22.071Z,90.81
2018-08-23T10:06:22.115Z,91.20
2018-08-23T10:07:22.161Z,89.45
2018-08-23T10:08:22.200Z,89.45
2018-08-23T10:09:22.243Z,89.98
2018-08-23T10:10:22.292Z,88.92
2018-08-23T10:11:22.385Z,89.59
2018-08-23T10:12:22.378Z,90.04
2018-08-23T10:13:22.419Z,89.40
2018-08-23T10:14:22.463Z,89.01
2018-08-23T10:15:22.505Z,87.75
2018-08-23T10:16:22.557Z,88.62
2018-08-23T10:17:22.592Z,89.11
2018-08-23T10:18:22.635Z,88.43
2018-08-23T10:19:22.680Z,88.18
2018-08-23T10:20:22.722Z,88.67
2018-08-23T10:21:22.766Z,87.02
2018-08-23T10:22:22.810Z,86.87
2018-08-23T10:23:22.853Z,86.47
2018-08-23T10:24:22.896Z,85.99
2018-08-23T10:25:22.941Z,85.89
2018-08-23T10:26:22.987Z,85.50
2018-08-23T10:27:23.035Z,84.77
2018-08-23T10:28:23.086Z,83.95
2018-08-23T10:29:23.116Z,84.67
2018-08-23T10:30:23.157Z,84.77
2018-08-23T10:31:23.202Z,85.06
2018-08-23T10:32:23.405Z,83.89
2018-08-23T10:33:23.290Z,84.57
2018-08-23T10:34:23.335Z,84.08
2018-08-23T10:35:23.377Z,83.25
2018-08-23T10:36:23.423Z,82.80
2018-08-23T10:37:23.472Z,81.05
2018-08-23T10:38:23.510Z,80.36
2018-08-23T10:39:23.585Z,80.36
2018-08-23T10:40:23.600Z,78.94
2018-08-23T10:41:23.643Z,79.04
2018-08-23T10:42:23.686Z,78.42
2018-08-23T10:43:23.728Z,79.10
2018-08-23T10:44:23.776Z,78.06
2018-08-23T10:45:23.819Z,77.34
2018-08-23T10:46:23.861Z,76.67
2018-08-23T10:47:23.910Z,76.67
2018-08-23T10:48:23.950Z,77.64
2018-08-23T10:49:23.997Z,78.06
2018-08-23T10:50:24.038Z,77.09
2018-08-23T10:51:24.084Z,76.51
2018-08-23T10:52:24.128Z,77.39
2018-08-23T10:53:24.172Z,77.19
2018-08-23T10:54:24.223Z,75.04
2018-08-23T10:55:24.268Z,73.29
2018-08-23T10:56:24.305Z,70.56
2018-08-23T10:57:24.349Z,70.76
2018-08-23T10:58:24.395Z,72.35
2018-08-23T10:59:24.444Z,73.91
2018-08-23T11:00:24.482Z,74.21
2018-08-23T11:01:24.527Z,70.98
2018-08-23T11:02:24.570Z,71.47
2018-08-23T11:03:24.615Z,72.55
2018-08-23T11:04:24.660Z,72.68
2018-08-23T11:05:24.704Z,69.07
2018-08-23T11:06:24.750Z,67.71
2018-08-23T11:07:24.795Z,58.56
2018-08-23T11:08:24.840Z,57.98
2018-08-23T11:09:24.886Z,58.37
2018-08-23T11:10:24.930Z,59.57
2018-08-23T11:11:24.975Z,59.57
2018-08-23T11:12:25.018Z,58.01
2018-08-23T11:13:25.064Z,56.84
2018-08-23T11:14:25.111Z,54.69
2018-08-23T11:15:25.164Z,55.08
2018-08-23T11:16:25.200Z,55.47
2018-08-23T11:17:25.245Z,54.88
2018-08-23T11:18:25.296Z,54.79
2018-08-23T11:19:25.336Z,53.78
2018-08-23T11:20:25.379Z,55.34
2018-08-23T11:21:25.425Z,55.24
2018-08-23T11:22:25.472Z,53.58
2018-08-23T11:23:25.514Z,53.49
2018-08-23T11:24:25.563Z,52.90
2018-08-23T11:25:25.605Z,52.80
2018-08-23T11:26:25.649Z,52.51
2018-08-23T11:27:25.694Z,53.39
2018-08-23T11:28:25.737Z,52.90
2018-08-23T11:29:25.854Z,53.29
2018-08-23T11:30:25.833Z,52.80
2018-08-23T11:31:25.876Z,53.19
2018-08-23T11:32:25.926Z,52.80
2018-08-23T11:33:26.029Z,53.03
2018-08-23T11:34:26.015Z,51.24
2018-08-23T11:35:26.057Z,52.54
2018-08-23T11:36:26.105Z,51.37
2018-08-23T11:37:26.204Z,51.86
2018-08-23T11:38:26.217Z,52.54
2018-08-23T11:39:26.266Z,52.64
2018-08-23T11:40:26.334Z,52.44
2018-08-23T11:41:26.329Z,53.22
2018-08-23T11:42:26.372Z,52.17
2018-08-23T11:43:26.419Z,52.56
2018-08-23T11:44:26.462Z,53.05
2018-08-23T11:45:26.509Z,52.17
2018-08-23T11:46:26.552Z,51.88
2018-08-23T11:47:26.602Z,51.29
2018-08-23T11:48:26.644Z,51.27
2018-08-23T11:49:26.689Z,51.76
2018-08-23T11:50:26.737Z,52.66
2018-08-23T11:51:26.784Z,52.47
2018-08-23T11:52:26.824Z,52.76
2018-08-23T11:53:27.038Z,52.76
2018-08-23T11:54:26.926Z,53.25
2018-08-23T11:55:26.961Z,51.10
2018-08-23T11:56:27.008Z,50.10
2018-08-23T11:57:27.062Z,51.07
2018-08-23T11:58:27.096Z,50.98
2018-08-23T11:59:27.195Z,51.00
2018-08-23T12:00:27.191Z,51.39
2018-08-23T12:01:27.235Z,51.00
2018-08-23T12:02:27.288Z,51.10
2018-08-23T12:03:27.325Z,51.20
2018-08-23T12:04:27.368Z,52.17
2018-08-23T12:05:27.414Z,50.90
2018-08-23T12:06:27.498Z,50.51
2018-08-23T12:07:27.508Z,51.29
2018-08-23T12:08:27.551Z,51.22
2018-08-23T12:09:27.596Z,50.90
2018-08-23T12:10:27.642Z,51.90
2018-08-23T12:11:27.686Z,52.59
2018-08-23T12:12:27.734Z,52.49
2018-08-23T12:13:27.782Z,52.78
2018-08-23T12:14:27.831Z,52.59
2018-08-23T12:15:27.924Z,52.98
2018-08-23T12:16:27.914Z,53.17
2018-08-23T12:17:27.959Z,53.47
2018-08-23T12:18:28.007Z,53.76
2018-08-23T12:19:28.057Z,53.08
2018-08-23T12:20:28.154Z,52.56
2018-08-23T12:21:28.140Z,52.88
2018-08-23T12:22:28.194Z,52.49
2018-08-23T12:23:28.231Z,52.78
2018-08-23T12:24:28.285Z,52.59
2018-08-23T12:25:28.351Z,52.10
2018-08-23T12:26:28.410Z,53.66
2018-08-23T12:27:28.432Z,52.49
2018-08-23T12:28:28.466Z,52.69
2018-08-23T12:29:28.505Z,52.61
2018-08-23T12:30:28.557Z,52.49
2018-08-23T12:31:28.610Z,53.69
2018-08-23T12:32:28.651Z,52.61
2018-08-23T12:33:28.688Z,52.91
2018-08-23T12:34:28.755Z,52.61
2018-08-23T12:35:28.790Z,52.12
2018-08-23T12:36:28.834Z,52.71
2018-08-23T12:37:28.910Z,52.51
2018-08-23T12:38:28.913Z,52.51
2018-08-23T12:39:28.961Z,52.71
2018-08-23T12:40:29.055Z,52.61
2018-08-23T12:41:29.051Z,53.00
2018-08-23T12:42:29.096Z,52.78
2018-08-23T12:43:29.206Z,53.08
2018-08-23T12:44:29.189Z,54.35
2018-08-23T12:45:29.237Z,53.37
2018-08-23T12:46:29.342Z,53.17
2018-08-23T12:47:29.326Z,53.47
2018-08-23T12:48:29.372Z,54.86
2018-08-23T12:49:29.476Z,53.69
2018-08-23T12:50:29.470Z,54.28
2018-08-23T12:51:29.509Z,53.17
2018-08-23T12:52:29.553Z,53.00
2018-08-23T12:53:29.603Z,53.20